createdAt,value
2023-09-24T00:00:17.238Z,12
2023-09-24T00:02:48.204Z,8
2023-09-24T00:05:19.609Z,8
2023-09-24T00:07:50.748Z,8
2023-09-24T00:10:21.621Z,8
2023-09-24T00:12:52.682Z,8
2023-09-24T00:15:23.163Z,4
2023-09-24T00:17:54.718Z,8
2023-09-24T00:20:24.036Z,8
2023-09-24T00:22:55.192Z,8
2023-09-24T00:25:27.037Z,8
2023-09-24T00:27:58.317Z,8
2023-09-24T00:30:28.911Z,7
2023-09-24T00:32:59.628Z,4
2023-09-24T00:35:30.577Z,8
2023-09-24T00:38:01.476Z,10
2023-09-24T00:40:32.241Z,12
2023-09-24T00:43:03.066Z,8
2023-09-24T00:45:33.713Z,8
2023-09-24T00:48:03.122Z,4
2023-09-24T00:50:34.655Z,4
2023-09-24T00:53:05.888Z,8
2023-09-24T00:55:36.889Z,6
2023-09-24T00:58:07.692Z,4
2023-09-24T01:00:38.830Z,4
2023-09-24T01:03:09.885Z,6
2023-09-24T01:05:40.890Z,4
2023-09-24T01:08:11.610Z,4
2023-09-24T01:10:40.739Z,7
2023-09-24T01:13:11.215Z,8
2023-09-24T01:15:41.648Z,4
2023-09-24T01:18:12.289Z,3
2023-09-24T01:20:41.267Z,1
2023-09-24T01:23:11.813Z,4
2023-09-24T01:25:42.285Z,2
2023-09-24T01:28:13.072Z,0
2023-09-24T01:30:43.882Z,0
2023-09-24T01:33:14.506Z,0
2023-09-24T01:35:43.308Z,4
2023-09-24T01:38:14.638Z,0
2023-09-24T01:40:45.958Z,0
2023-09-24T01:43:16.337Z,0
2023-09-24T01:45:47.119Z,4
2023-09-24T01:48:18.460Z,4
2023-09-24T01:50:48.001Z,3
2023-09-24T01:53:18.362Z,5
2023-09-24T01:55:48.873Z,4
2023-09-24T01:58:19.569Z,0
2023-09-24T02:00:50.160Z,1
2023-09-24T02:03:19.381Z,0
2023-09-24T02:05:50.256Z,2
2023-09-24T02:08:20.967Z,0
2023-09-24T02:10:52.127Z,0
2023-09-24T02:13:23.050Z,0
2023-09-24T02:15:54.498Z,0
2023-09-24T02:18:24.345Z,3
2023-09-24T02:20:55.394Z,0
2023-09-24T02:23:26.843Z,0
2023-09-24T02:25:57.894Z,0
2023-09-24T02:28:28.718Z,0
2023-09-24T02:30:59.490Z,4
2023-09-24T02:33:30.754Z,0
2023-09-24T02:36:01.766Z,0
2023-09-24T02:38:32.747Z,0
2023-09-24T02:41:03.918Z,0
2023-09-24T02:43:35.771Z,0
2023-09-24T02:46:07.085Z,0
2023-09-24T02:48:38.208Z,0
2023-09-24T02:51:09.605Z,1
2023-09-24T02:53:40.490Z,0
2023-09-24T02:56:11.657Z,0
2023-09-24T02:58:42.561Z,0
2023-09-24T03:01:13.448Z,0
2023-09-24T03:03:44.195Z,0
2023-09-24T03:06:15.523Z,2
2023-09-24T03:08:46.883Z,0
2023-09-24T03:11:17.433Z,0
2023-09-24T03:13:48.288Z,0
2023-09-24T03:16:19.676Z,0
2023-09-24T03:18:52.488Z,0
2023-09-24T03:21:23.668Z,0
2023-09-24T03:23:54.719Z,0
2023-09-24T03:26:25.910Z,0
2023-09-24T03:28:56.968Z,0
2023-09-24T03:31:28.062Z,0
2023-09-24T03:33:58.745Z,0
2023-09-24T03:36:29.166Z,0
2023-09-24T03:39:00.596Z,0
2023-09-24T03:41:32.028Z,0
2023-09-24T03:44:02.443Z,0
2023-09-24T03:46:33.161Z,0
2023-09-24T03:49:04.393Z,0
2023-09-24T03:51:35.370Z,0
2023-09-24T03:54:06.591Z,0
2023-09-24T03:56:37.354Z,0
2023-09-24T03:59:08.245Z,0
2023-09-24T04:01:39.908Z,0
2023-09-24T04:04:10.418Z,0
2023-09-24T04:06:41.513Z,0
2023-09-24T04:09:11.701Z,0
2023-09-24T04:11:42.645Z,0
2023-09-24T04:14:13.171Z,0
2023-09-24T04:16:44.918Z,0
2023-09-24T04:19:15.935Z,0
2023-09-24T04:21:46.486Z,0
2023-09-24T04:24:17.792Z,0
2023-09-24T04:26:48.400Z,0
2023-09-24T04:29:19.547Z,0
2023-09-24T04:31:50.203Z,0
2023-09-24T04:34:21.093Z,0
2023-09-24T04:36:51.181Z,0
2023-09-24T04:39:21.873Z,0
2023-09-24T04:41:52.827Z,0
2023-09-24T04:44:23.092Z,0
2023-09-24T04:46:53.752Z,0
2023-09-24T04:49:24.766Z,0
2023-09-24T04:51:55.699Z,4
2023-09-24T04:54:26.498Z,0
2023-09-24T04:56:57.654Z,1
2023-09-24T04:59:28.668Z,0
2023-09-24T05:01:59.417Z,0
2023-09-24T05:04:30.182Z,1
2023-09-24T05:07:00.412Z,0
2023-09-24T05:09:31.213Z,0
2023-09-24T05:12:02.331Z,0
2023-09-24T05:14:33.030Z,0
2023-09-24T05:17:03.676Z,4
2023-09-24T05:19:34.717Z,0
2023-09-24T05:22:05.030Z,8
2023-09-24T05:24:36.292Z,4
2023-09-24T05:27:06.596Z,0
2023-09-24T05:29:36.975Z,4
2023-09-24T05:32:07.854Z,4
2023-09-24T05:34:38.906Z,0
2023-09-24T05:37:09.573Z,8
2023-09-24T05:39:39.967Z,0
2023-09-24T05:42:10.946Z,0
2023-09-24T05:44:42.157Z,0
2023-09-24T05:47:12.502Z,0
2023-09-24T05:49:43.007Z,0
2023-09-24T05:52:13.290Z,0
2023-09-24T05:54:44.113Z,0
2023-09-24T05:57:14.814Z,0
2023-09-24T05:59:45.504Z,0
2023-09-24T06:02:16.168Z,0
2023-09-24T06:04:47.614Z,0
2023-09-24T06:07:18.811Z,0
2023-09-24T06:09:49.262Z,0
2023-09-24T06:12:18.548Z,4
2023-09-24T06:14:49.112Z,7
2023-09-24T06:17:19.165Z,4
2023-09-24T06:19:49.230Z,4
2023-09-24T06:22:19.263Z,0
2023-09-24T06:24:49.818Z,4
2023-09-24T06:27:19.081Z,21
2023-09-24T06:29:49.158Z,14
2023-09-24T06:32:20.450Z,4
2023-09-24T06:34:51.323Z,4
2023-09-24T06:37:21.837Z,8
2023-09-24T06:39:52.671Z,8
2023-09-24T06:42:23.252Z,16
2023-09-24T06:44:53.991Z,28
2023-09-24T06:47:24.481Z,4
2023-09-24T06:49:55.172Z,17
2023-09-24T06:52:26.126Z,4
2023-09-24T06:54:55.215Z,4
2023-09-24T06:57:26.250Z,4
2023-09-24T06:59:57.225Z,0
2023-09-24T07:02:27.560Z,0
2023-09-24T07:04:58.305Z,4
2023-09-24T07:07:28.935Z,4
2023-09-24T07:09:59.314Z,23
2023-09-24T07:12:30.469Z,6
2023-09-24T07:15:01.031Z,0
2023-09-24T07:17:31.444Z,3
2023-09-24T07:20:01.580Z,0
2023-09-24T07:22:35.408Z,4
2023-09-24T07:25:05.972Z,12
2023-09-24T07:27:36.746Z,52
2023-09-24T07:30:07.660Z,4
2023-09-24T07:32:38.741Z,32
2023-09-24T07:35:07.629Z,16
2023-09-24T07:37:38.706Z,46
2023-09-24T07:40:09.613Z,40
2023-09-24T07:42:42.232Z,24
2023-09-24T07:45:10.958Z,21
2023-09-24T07:47:41.401Z,10
2023-09-24T07:50:12.369Z,44
2023-09-24T07:52:42.814Z,8
2023-09-24T07:55:13.152Z,31
2023-09-24T07:57:43.965Z,8
2023-09-24T08:00:14.215Z,2
2023-09-24T08:02:44.899Z,32
2023-09-24T08:05:15.646Z,7
2023-09-24T08:07:45.755Z,4
2023-09-24T08:10:16.558Z,8
2023-09-24T08:12:47.179Z,4
2023-09-24T08:15:18.186Z,4
2023-09-24T08:17:48.464Z,4
2023-09-24T08:20:19.753Z,20
2023-09-24T08:22:50.057Z,0
2023-09-24T08:25:21.071Z,0
2023-09-24T08:27:51.709Z,8
2023-09-24T08:30:21.445Z,3
2023-09-24T08:32:51.969Z,4
2023-09-24T08:35:22.494Z,17
2023-09-24T08:37:53.424Z,8
2023-09-24T08:40:22.644Z,21
2023-09-24T08:42:53.257Z,4
2023-09-24T08:45:24.311Z,4
2023-09-24T08:47:55.235Z,4
2023-09-24T08:50:25.936Z,11
2023-09-24T08:52:57.665Z,4
2023-09-24T08:55:28.053Z,4
2023-09-24T08:57:57.212Z,8
2023-09-24T09:00:28.067Z,4
2023-09-24T09:02:59.645Z,2
2023-09-24T09:05:29.686Z,0
2023-09-24T09:08:00.045Z,0
2023-09-24T09:10:31.165Z,0
2023-09-24T09:13:01.459Z,4
2023-09-24T09:15:32.554Z,0
2023-09-24T09:18:03.430Z,7
2023-09-24T09:20:33.909Z,8
2023-09-24T09:23:04.807Z,4
2023-09-24T09:25:35.352Z,5
2023-09-24T09:28:05.757Z,4
2023-09-24T09:30:36.299Z,4
2023-09-24T09:33:06.679Z,8
2023-09-24T09:35:37.651Z,6
2023-09-24T09:38:08.023Z,8
2023-09-24T09:40:38.474Z,6
2023-09-24T09:43:08.891Z,4
2023-09-24T09:45:39.714Z,8
2023-09-24T09:48:10.255Z,4
2023-09-24T09:50:40.683Z,7
2023-09-24T09:53:12.423Z,8
2023-09-24T09:55:42.616Z,4
2023-09-24T09:58:22.676Z,6
2023-09-24T10:00:43.982Z,4
2023-09-24T10:03:14.836Z,4
2023-09-24T10:05:45.376Z,4
2023-09-24T10:08:15.622Z,4
2023-09-24T10:10:46.330Z,8
2023-09-24T10:13:16.681Z,8
2023-09-24T10:15:47.297Z,8
2023-09-24T10:18:17.765Z,4
2023-09-24T10:20:48.134Z,8
2023-09-24T10:23:18.688Z,8
2023-09-24T10:25:50.007Z,4
2023-09-24T10:28:27.360Z,4
2023-09-24T10:30:57.914Z,0
2023-09-24T10:33:28.372Z,4
2023-09-24T10:35:58.579Z,4
2023-09-24T10:38:29.690Z,2
2023-09-24T10:40:59.696Z,0
2023-09-24T10:43:29.732Z,4
2023-09-24T10:46:00.247Z,4
2023-09-24T10:48:44.340Z,4
2023-09-24T10:51:01.682Z,4
2023-09-24T10:53:32.649Z,4
2023-09-24T10:56:11.292Z,2
2023-09-24T10:58:33.606Z,4
2023-09-24T11:01:04.103Z,4
2023-09-24T11:03:35.418Z,4
2023-09-24T11:06:05.804Z,4
2023-09-24T11:08:36.634Z,4
2023-09-24T11:11:07.388Z,25
2023-09-24T11:13:38.094Z,30
2023-09-24T11:16:08.421Z,9
2023-09-24T11:18:38.882Z,17
2023-09-24T11:21:10.052Z,13
2023-09-24T11:23:42.621Z,8
2023-09-24T11:26:11.255Z,12
2023-09-24T11:28:42.393Z,10
2023-09-24T11:31:13.424Z,30
2023-09-24T11:33:43.967Z,20
2023-09-24T11:36:15.142Z,16
2023-09-24T11:38:45.629Z,36
2023-09-24T11:41:18.488Z,20
2023-09-24T11:43:48.950Z,24
2023-09-24T11:46:19.714Z,21
2023-09-24T11:48:50.657Z,24
2023-09-24T11:51:20.839Z,18
2023-09-24T11:53:51.100Z,16
2023-09-24T11:56:21.367Z,17
2023-09-24T11:58:51.933Z,16
2023-09-24T12:01:22.093Z,17
2023-09-24T12:03:52.506Z,20
2023-09-24T12:06:22.855Z,16
2023-09-24T12:08:52.146Z,17
2023-09-24T12:11:22.365Z,28
2023-09-24T12:13:52.679Z,24
2023-09-24T12:16:23.650Z,28
2023-09-24T12:18:54.534Z,33
2023-09-24T12:21:25.126Z,37
2023-09-24T12:23:55.626Z,24
2023-09-24T12:26:26.268Z,24
2023-09-24T12:29:02.833Z,20
2023-09-24T12:31:33.588Z,28
2023-09-24T12:34:04.167Z,28
2023-09-24T12:36:34.440Z,24
2023-09-24T12:39:04.945Z,24
2023-09-24T12:41:35.766Z,22
2023-09-24T12:44:06.074Z,24
2023-09-24T12:46:36.425Z,20
2023-09-24T12:49:05.413Z,32
2023-09-24T12:51:36.810Z,24
2023-09-24T12:54:07.796Z,24
2023-09-24T12:56:36.601Z,24
2023-09-24T12:59:07.664Z,28
2023-09-24T13:01:38.588Z,28
2023-09-24T13:04:09.424Z,28
2023-09-24T13:06:40.403Z,28
2023-09-24T13:09:11.056Z,28
2023-09-24T13:11:41.560Z,23
2023-09-24T13:14:12.397Z,27
2023-09-24T13:16:43.952Z,29
2023-09-24T13:19:15.066Z,24
2023-09-24T13:21:46.566Z,28
2023-09-24T13:24:16.517Z,30
2023-09-24T13:26:48.059Z,28
2023-09-24T13:29:18.152Z,26
2023-09-24T13:31:48.951Z,24
2023-09-24T13:34:19.604Z,30
2023-09-24T13:36:49.515Z,36
2023-09-24T13:39:20.153Z,28
2023-09-24T13:41:50.741Z,40
2023-09-24T13:44:21.588Z,48
2023-09-24T13:46:52.602Z,62
2023-09-24T13:49:23.571Z,71
2023-09-24T13:51:55.086Z,40
2023-09-24T13:54:25.086Z,33
2023-09-24T13:56:58.776Z,37
2023-09-24T13:59:29.053Z,36
2023-09-24T14:01:59.683Z,36
2023-09-24T14:04:30.065Z,32
2023-09-24T14:07:01.028Z,36
2023-09-24T14:09:31.216Z,36
2023-09-24T14:12:02.045Z,35
2023-09-24T14:14:32.940Z,32
2023-09-24T14:17:03.375Z,32
2023-09-24T14:19:34.348Z,32
2023-09-24T14:22:05.413Z,32
2023-09-24T14:24:35.725Z,33
2023-09-24T14:27:06.709Z,34
2023-09-24T14:29:37.328Z,36
2023-09-24T14:32:07.784Z,31
2023-09-24T14:34:36.859Z,35
2023-09-24T14:37:07.835Z,31
2023-09-24T14:39:38.811Z,35
2023-09-24T14:42:09.168Z,32
2023-09-24T14:44:39.977Z,36
2023-09-24T14:47:08.858Z,32
2023-09-24T14:49:39.385Z,32
2023-09-24T14:52:09.543Z,29
2023-09-24T14:54:40.044Z,28
2023-09-24T14:57:10.440Z,31
2023-09-24T14:59:40.804Z,28
2023-09-24T15:02:11.113Z,25
2023-09-24T15:04:41.373Z,25
2023-09-24T15:07:11.365Z,31
2023-09-24T15:09:41.830Z,31
2023-09-24T15:12:12.516Z,28
2023-09-24T15:14:43.255Z,31
2023-09-24T15:17:13.789Z,29
2023-09-24T15:19:44.969Z,36
2023-09-24T15:22:15.529Z,32
2023-09-24T15:24:46.751Z,41
2023-09-24T15:27:16.998Z,40
2023-09-24T15:29:48.249Z,40
2023-09-24T15:32:19.265Z,36
2023-09-24T15:34:49.871Z,31
2023-09-24T15:37:20.225Z,32
2023-09-24T15:39:51.381Z,32
2023-09-24T15:42:21.570Z,39
2023-09-24T15:44:51.802Z,29
2023-09-24T15:47:22.003Z,40
2023-09-24T15:49:53.455Z,35
2023-09-24T15:52:24.504Z,25
2023-09-24T15:54:55.024Z,25
2023-09-24T15:57:25.473Z,24
2023-09-24T15:59:56.504Z,28
2023-09-24T16:02:27.041Z,24
2023-09-24T16:04:57.985Z,19
2023-09-24T16:07:28.418Z,20
2023-09-24T16:09:58.851Z,20
2023-09-24T16:12:29.816Z,28
2023-09-24T16:15:00.687Z,22
2023-09-24T16:17:30.953Z,20
2023-09-24T16:20:01.341Z,20
2023-09-24T16:22:31.403Z,20
2023-09-24T16:25:01.763Z,20
2023-09-24T16:27:30.372Z,19
2023-09-24T16:30:00.534Z,20
2023-09-24T16:32:31.445Z,22
2023-09-24T16:35:02.382Z,28
2023-09-24T16:37:32.861Z,28
2023-09-24T16:40:03.130Z,32
2023-09-24T16:42:33.560Z,32
2023-09-24T16:45:04.268Z,32
2023-09-24T16:47:38.646Z,28
2023-09-24T16:50:08.654Z,28
2023-09-24T16:52:39.475Z,28
2023-09-24T16:55:10.479Z,25
2023-09-24T16:57:44.555Z,24
2023-09-24T17:00:14.751Z,20
2023-09-24T17:02:45.360Z,20
2023-09-24T17:05:15.754Z,17
2023-09-24T17:07:45.931Z,20
2023-09-24T17:10:16.342Z,12
2023-09-24T17:12:46.560Z,16
2023-09-24T17:15:17.860Z,16
2023-09-24T17:17:48.247Z,20
2023-09-24T17:20:19.179Z,20
2023-09-24T17:22:49.771Z,24
2023-09-24T17:25:20.375Z,28
2023-09-24T17:27:50.646Z,27
2023-09-24T17:30:20.973Z,24
2023-09-24T17:32:51.475Z,28
2023-09-24T17:35:22.191Z,32
2023-09-24T17:37:53.214Z,28
2023-09-24T17:40:23.195Z,33
2023-09-24T17:42:53.301Z,34
2023-09-24T17:45:26.901Z,28
2023-09-24T17:47:57.351Z,23
2023-09-24T17:50:28.275Z,25
2023-09-24T17:52:58.682Z,28
2023-09-24T17:55:28.778Z,32
2023-09-24T17:57:59.014Z,31
2023-09-24T18:00:29.368Z,32
2023-09-24T18:02:59.518Z,32
2023-09-24T18:05:29.699Z,23
2023-09-24T18:07:59.852Z,20
2023-09-24T18:10:30.076Z,25
2023-09-24T18:13:00.563Z,28
2023-09-24T18:15:30.838Z,28
2023-09-24T18:18:01.658Z,36
2023-09-24T18:20:31.838Z,29
2023-09-24T18:23:02.322Z,26
2023-09-24T18:25:32.627Z,20
2023-09-24T18:28:02.896Z,16
2023-09-24T18:30:33.277Z,16
2023-09-24T18:33:03.565Z,20
2023-09-24T18:35:33.516Z,20
2023-09-24T18:38:04.105Z,21
2023-09-24T18:40:34.428Z,24
2023-09-24T18:43:04.561Z,28
2023-09-24T18:45:35.057Z,27
2023-09-24T18:48:05.380Z,25
2023-09-24T18:50:35.672Z,24
2023-09-24T18:53:05.955Z,20
2023-09-24T18:55:36.623Z,23
2023-09-24T18:58:07.012Z,24
2023-09-24T19:00:35.925Z,28
2023-09-24T19:03:07.093Z,23
2023-09-24T19:05:37.325Z,12
2023-09-24T19:08:06.267Z,16
2023-09-24T19:10:36.481Z,8
2023-09-24T19:13:06.831Z,10
2023-09-24T19:15:36.601Z,9
2023-09-24T19:18:06.957Z,12
2023-09-24T19:20:37.603Z,12
2023-09-24T19:23:07.722Z,12
2023-09-24T19:25:38.216Z,11
2023-09-24T19:28:08.689Z,8
2023-09-24T19:30:39.278Z,16
2023-09-24T19:33:08.292Z,8
2023-09-24T19:35:38.739Z,12
2023-09-24T19:38:09.072Z,12
2023-09-24T19:40:40.076Z,12
2023-09-24T19:43:10.376Z,20
2023-09-24T19:45:41.352Z,20
2023-09-24T19:48:11.720Z,24
2023-09-24T19:50:41.891Z,18
2023-09-24T19:53:12.460Z,16
2023-09-24T19:55:42.829Z,15
2023-09-24T19:58:13.112Z,20
2023-09-24T20:00:44.654Z,20
2023-09-24T20:03:15.226Z,16
2023-09-24T20:05:45.548Z,17
2023-09-24T20:08:15.655Z,15
2023-09-24T20:10:45.768Z,17
2023-09-24T20:13:16.680Z,16
2023-09-24T20:15:47.180Z,12
2023-09-24T20:18:17.448Z,17
2023-09-24T20:20:47.764Z,16
2023-09-24T20:23:18.091Z,20
2023-09-24T20:25:48.570Z,17
2023-09-24T20:28:19.429Z,16
2023-09-24T20:30:47.740Z,12
2023-09-24T20:33:28.373Z,13
2023-09-24T20:35:46.584Z,16
2023-09-24T20:38:16.790Z,16
2023-09-24T20:40:47.123Z,20
2023-09-24T20:43:16.063Z,13
2023-09-24T20:45:46.372Z,12
2023-09-24T20:48:17.049Z,16
2023-09-24T20:50:47.180Z,27
2023-09-24T20:53:17.669Z,32
2023-09-24T20:55:48.625Z,28
2023-09-24T20:58:19.507Z,28
2023-09-24T21:00:49.997Z,20
2023-09-24T21:03:20.443Z,21
2023-09-24T21:05:50.643Z,20
2023-09-24T21:08:21.337Z,16
2023-09-24T21:10:51.590Z,20
2023-09-24T21:13:21.911Z,20
2023-09-24T21:15:52.732Z,20
2023-09-24T21:18:23.066Z,24
2023-09-24T21:20:53.396Z,20
2023-09-24T21:23:23.989Z,20
2023-09-24T21:25:55.375Z,20
2023-09-24T21:28:25.840Z,24
2023-09-24T21:30:56.555Z,20
2023-09-24T21:33:27.378Z,20
2023-09-24T21:35:57.145Z,17
2023-09-24T21:38:27.782Z,15
2023-09-24T21:40:58.452Z,16
2023-09-24T21:43:28.952Z,19
2023-09-24T21:45:59.936Z,20
2023-09-24T21:48:30.832Z,20
2023-09-24T21:51:01.109Z,23
2023-09-24T21:53:31.295Z,27
2023-09-24T21:56:01.534Z,28
2023-09-24T21:58:31.894Z,23
2023-09-24T22:01:02.485Z,24
2023-09-24T22:03:33.007Z,48
2023-09-24T22:06:03.345Z,32
2023-09-24T22:08:32.436Z,41
2023-09-24T22:11:02.736Z,40
2023-09-24T22:13:33.336Z,29
2023-09-24T22:16:04.115Z,16
2023-09-24T22:18:34.273Z,32
2023-09-24T22:21:04.246Z,17
2023-09-24T22:23:34.670Z,22
2023-09-24T22:26:04.684Z,20
2023-09-24T22:28:35.331Z,20
2023-09-24T22:31:06.105Z,36
2023-09-24T22:33:35.194Z,33
2023-09-24T22:36:05.663Z,20
2023-09-24T22:38:36.347Z,20
2023-09-24T22:41:06.891Z,16
2023-09-24T22:43:37.361Z,19
2023-09-24T22:46:06.347Z,16
2023-09-24T22:48:36.861Z,16
2023-09-24T22:51:07.167Z,16
2023-09-24T22:53:37.590Z,12
2023-09-24T22:56:07.911Z,9
2023-09-24T22:58:38.703Z,8
2023-09-24T23:01:08.852Z,8
2023-09-24T23:03:39.149Z,8
2023-09-24T23:06:09.603Z,15
2023-09-24T23:08:40.006Z,16
2023-09-24T23:11:10.623Z,12
2023-09-24T23:13:40.988Z,24
2023-09-24T23:16:11.720Z,29
2023-09-24T23:18:42.019Z,23
2023-09-24T23:21:12.526Z,16
2023-09-24T23:23:43.050Z,20
2023-09-24T23:26:13.807Z,22
2023-09-24T23:28:44.373Z,20
2023-09-24T23:31:15.019Z,24
2023-09-24T23:33:45.629Z,25
2023-09-24T23:36:16.071Z,25
2023-09-24T23:38:46.521Z,16
2023-09-24T23:41:16.921Z,17
2023-09-24T23:43:48.310Z,20
2023-09-24T23:46:18.730Z,16
2023-09-24T23:48:49.918Z,16
2023-09-24T23:51:19.047Z,20
2023-09-24T23:53:49.899Z,20
2023-09-24T23:56:20.553Z,20
2023-09-24T23:58:51.360Z,26
